Western King — CY7367 — position and weather

sailwx.info

Track history (hours):
 
Tides and Currents Weather Stations Pressure Air Temp Water Temp Dewpoint Dewpoint Depression Visibility Wind Speed Wind Dir Waves Ship Positions

Western King

Last reported at 2014-Dec-07 07:30 UTC. Time now 2014-Dec-21 17:20 UTC.
Position N 49°51' W 124°54'.
Warning: this ship's position is 14 days out of date.

Length 23 m; draft 3.8 m.

Type: Fishing. MMSI: 316003779.

Date/timePositionNaut miles runAvg speedWind from/ knotsBaromVisibWave heightAir tempDewpointWater temp
2014-Dec-07 07:30N 49°51' W 124°54'18 9.2
2014-Dec-07 05:33N 49°40' W 124°33'9 9.2
2014-Dec-07 04:33N 49°34' W 124°22'10 9.1
2014-Dec-07 03:27N 49°29' W 124°08'10 9.3
2014-Dec-07 02:24N 49°25' W 123°55'11 9.1
2014-Dec-07 01:15N 49°21' W 123°40'6 9.3
2014-Dec-07 00:33N 49°19' W 123°30'9 9.1
2014-Dec-06 23:33N 49°16' W 123°17'9 8.7
2014-Dec-06 22:33N 49°12' W 123°05'0 0.0
2014-Dec-06 21:31N 49°12' W 123°05'0 0.0
2014-Dec-06 20:31N 49°12' W 123°05'0 0.0
2014-Dec-06 19:31N 49°12' W 123°05'0 0.0
2014-Dec-06 18:31N 49°12' W 123°05'0 0.0
2014-Dec-06 17:31N 49°12' W 123°05'0 0.0
2014-Dec-06 16:31N 49°12' W 123°05'0 0.0
2014-Dec-06 15:31N 49°12' W 123°05'0 0.0
2014-Dec-06 14:31N 49°12' W 123°05'0 0.0
2014-Dec-06 13:34N 49°12' W 123°05'0 0.0
2014-Dec-06 12:31N 49°12' W 123°05'0 0.0
2014-Dec-06 11:28N 49°12' W 123°05'0 0.0
2014-Dec-06 10:31N 49°12' W 123°05'0 0.0
2014-Dec-06 09:22N 49°12' W 123°05'0 0.0
2014-Dec-06 08:31N 49°12' W 123°05'0 0.0
2014-Dec-06 07:28N 49°12' W 123°05'0 0.0
2014-Dec-06 06:31N 49°12' W 123°05'0 0.0
2014-Dec-06 05:31N 49°12' W 123°05'0 0.0
2014-Dec-06 04:31N 49°12' W 123°05'0 0.0
2014-Dec-06 03:31N 49°12' W 123°05'0 0.0
2014-Dec-06 02:33N 49°12' W 123°05'  
Track history (hours):
 
Tides and Currents Weather Stations Pressure Air Temp Water Temp Dewpoint Dewpoint Depression Visibility Wind Speed Wind Dir Waves Ship Positions

Western King

Last reported at 2014-Dec-07 07:30 UTC. Time now 2014-Dec-21 17:20 UTC.
Position N 49°51' W 124°54'.
Warning: this ship's position is 14 days out of date.

Length 23 m; draft 3.8 m.

Type: Fishing. MMSI: 316003779.

Date/timePositionNaut miles runAvg speedWind from/ knotsBaromVisibWave heightAir tempDewpointWater temp
2014-Dec-07 07:30N 49°51' W 124°54'18 9.2
2014-Dec-07 05:33N 49°40' W 124°33'9 9.2
2014-Dec-07 04:33N 49°34' W 124°22'10 9.1
2014-Dec-07 03:27N 49°29' W 124°08'10 9.3
2014-Dec-07 02:24N 49°25' W 123°55'11 9.1
2014-Dec-07 01:15N 49°21' W 123°40'6 9.3
2014-Dec-07 00:33N 49°19' W 123°30'9 9.1
2014-Dec-06 23:33N 49°16' W 123°17'9 8.7
2014-Dec-06 22:33N 49°12' W 123°05'0 0.0
2014-Dec-06 21:31N 49°12' W 123°05'0 0.0
2014-Dec-06 20:31N 49°12' W 123°05'0 0.0
2014-Dec-06 19:31N 49°12' W 123°05'0 0.0
2014-Dec-06 18:31N 49°12' W 123°05'0 0.0
2014-Dec-06 17:31N 49°12' W 123°05'0 0.0
2014-Dec-06 16:31N 49°12' W 123°05'0 0.0
2014-Dec-06 15:31N 49°12' W 123°05'0 0.0
2014-Dec-06 14:31N 49°12' W 123°05'0 0.0
2014-Dec-06 13:34N 49°12' W 123°05'0 0.0
2014-Dec-06 12:31N 49°12' W 123°05'0 0.0
2014-Dec-06 11:28N 49°12' W 123°05'0 0.0
2014-Dec-06 10:31N 49°12' W 123°05'0 0.0
2014-Dec-06 09:22N 49°12' W 123°05'0 0.0
2014-Dec-06 08:31N 49°12' W 123°05'0 0.0
2014-Dec-06 07:28N 49°12' W 123°05'0 0.0
2014-Dec-06 06:31N 49°12' W 123°05'0 0.0
2014-Dec-06 05:31N 49°12' W 123°05'0 0.0
2014-Dec-06 04:31N 49°12' W 123°05'0 0.0
2014-Dec-06 03:31N 49°12' W 123°05'0 0.0
2014-Dec-06 02:33N 49°12' W 123°05'  

Dump ship's entire track history